createdAt,value
2023-03-21T00:01:52.960Z,4.95
2023-03-21T00:04:24.638Z,4.94
2023-03-21T00:06:53.188Z,5.12
2023-03-21T00:09:21.465Z,5.11
2023-03-21T00:11:53.066Z,4.99
2023-03-21T00:14:21.265Z,4.92
2023-03-21T00:16:51.049Z,5.00
2023-03-21T00:19:21.073Z,5.18
2023-03-21T00:22:08.838Z,5.07
2023-03-21T00:24:37.558Z,4.98
2023-03-21T00:27:30.324Z,5.01
2023-03-21T00:29:56.795Z,5.17
2023-03-21T00:32:28.279Z,5.05
2023-03-21T00:35:16.531Z,4.94
2023-03-21T00:37:49.014Z,4.96
2023-03-21T00:40:26.750Z,5.18
2023-03-21T00:42:59.192Z,5.14
2023-03-21T00:45:28.172Z,5.02
2023-03-21T00:47:56.593Z,4.98
2023-03-21T00:50:30.162Z,5.16
2023-03-21T00:52:58.653Z,5.19
2023-03-21T00:55:28.535Z,5.07
2023-03-21T00:58:02.064Z,4.96
2023-03-21T01:00:31.204Z,4.92
2023-03-21T01:03:17.539Z,5.07
2023-03-21T01:06:04.546Z,5.06
2023-03-21T01:08:48.609Z,4.88
2023-03-21T01:11:24.435Z,4.79
2023-03-21T01:13:59.601Z,4.92
2023-03-21T01:16:32.844Z,5.01
2023-03-21T01:19:02.106Z,4.84
2023-03-21T01:21:33.250Z,4.75
2023-03-21T01:24:01.918Z,4.89
2023-03-21T01:26:30.639Z,4.92
2023-03-21T01:28:58.728Z,4.77
2023-03-21T01:31:26.882Z,4.66
2023-03-21T01:33:55.113Z,4.81
2023-03-21T01:36:25.580Z,4.86
2023-03-21T01:38:58.504Z,4.71
2023-03-21T01:41:42.011Z,4.62
2023-03-21T01:44:18.811Z,4.76
2023-03-21T01:47:11.412Z,4.81
2023-03-21T01:50:02.640Z,4.69
2023-03-21T01:52:41.905Z,4.64
2023-03-21T01:55:18.687Z,4.84
2023-03-21T01:58:05.999Z,4.88
2023-03-21T02:00:56.858Z,4.73
2023-03-21T02:03:50.440Z,4.64
2023-03-21T02:06:49.162Z,4.86
2023-03-21T02:09:26.200Z,4.92
2023-03-21T02:11:58.220Z,4.78
2023-03-21T02:14:30.974Z,4.67
2023-03-21T02:17:27.925Z,4.70
2023-03-21T02:20:41.067Z,4.91
2023-03-21T02:23:14.730Z,4.83
2023-03-21T02:26:40.897Z,4.68
2023-03-21T02:29:49.415Z,4.59
2023-03-21T02:32:37.538Z,4.64
2023-03-21T02:35:37.115Z,4.83
2023-03-21T02:39:09.581Z,4.77
2023-03-21T02:41:49.194Z,4.59
2023-03-21T02:44:37.702Z,4.53
2023-03-21T02:47:13.584Z,4.76
2023-03-21T02:49:54.550Z,4.78
2023-03-21T02:52:37.733Z,4.63
2023-03-21T02:55:16.372Z,4.54
2023-03-21T02:57:51.002Z,4.62
2023-03-21T03:00:21.707Z,4.78
2023-03-21T03:02:54.563Z,4.72
2023-03-21T03:05:29.361Z,4.58
2023-03-21T03:08:24.000Z,4.51
2023-03-21T03:11:09.589Z,4.67
2023-03-21T03:13:52.782Z,4.67
2023-03-21T03:16:42.446Z,4.50
2023-03-21T03:19:18.321Z,4.46
2023-03-21T03:22:06.514Z,4.63
2023-03-21T03:24:55.350Z,4.54
2023-03-21T03:27:26.220Z,4.38
2023-03-21T03:29:54.573Z,4.41
2023-03-21T03:32:44.958Z,4.56
2023-03-21T03:35:17.656Z,4.50
2023-03-21T03:37:48.176Z,4.37
2023-03-21T03:40:17.474Z,4.35
2023-03-21T03:42:53.440Z,4.54
2023-03-21T03:45:40.036Z,4.54
2023-03-21T03:48:15.841Z,4.41
2023-03-21T03:51:11.006Z,4.37
2023-03-21T03:53:58.916Z,4.61
2023-03-21T03:56:30.000Z,4.62
2023-03-21T03:58:58.376Z,4.47
2023-03-21T04:01:41.549Z,4.41
2023-03-21T04:04:13.177Z,4.55
2023-03-21T04:06:45.622Z,4.66
2023-03-21T04:09:21.923Z,4.54
2023-03-21T04:11:53.338Z,4.44
2023-03-21T04:14:21.702Z,4.59
2023-03-21T04:16:50.584Z,4.64
2023-03-21T04:19:19.012Z,4.53
2023-03-21T04:21:47.683Z,4.45
2023-03-21T04:24:17.322Z,4.63
2023-03-21T04:26:46.138Z,4.74
2023-03-21T04:29:37.177Z,4.62
2023-03-21T04:32:27.651Z,4.59
2023-03-21T04:35:09.799Z,4.79
2023-03-21T04:37:39.320Z,4.75
2023-03-21T04:40:11.218Z,4.65
2023-03-21T04:42:39.485Z,4.75
2023-03-21T04:45:08.374Z,4.91
2023-03-21T04:47:36.900Z,4.83
2023-03-21T04:50:09.430Z,4.77
2023-03-21T04:52:38.491Z,4.95
2023-03-21T04:55:10.180Z,4.97
2023-03-21T04:57:39.851Z,4.86
2023-03-21T05:00:10.028Z,4.84
2023-03-21T05:02:42.440Z,5.00
2023-03-21T05:05:12.083Z,5.06
2023-03-21T05:07:41.819Z,4.97
2023-03-21T05:10:11.894Z,5.02
2023-03-21T05:12:42.690Z,5.19
2023-03-21T05:15:11.207Z,5.17
2023-03-21T05:17:44.394Z,5.07
2023-03-21T05:20:16.149Z,5.14
2023-03-21T05:22:46.291Z,5.27
2023-03-21T05:25:18.220Z,5.24
2023-03-21T05:28:31.484Z,5.19
2023-03-21T05:31:01.120Z,5.31
2023-03-21T05:33:30.038Z,5.39
2023-03-21T05:35:58.574Z,5.36
2023-03-21T05:38:31.541Z,5.35
2023-03-21T05:40:59.880Z,5.49
2023-03-21T05:43:28.225Z,5.65
2023-03-21T05:45:58.294Z,5.65
2023-03-21T05:48:36.893Z,5.62
2023-03-21T05:51:15.932Z,5.78
2023-03-21T05:53:44.027Z,5.94
2023-03-21T05:56:12.319Z,5.94
2023-03-21T05:58:46.788Z,5.95
2023-03-21T06:01:15.909Z,6.08
2023-03-21T06:03:48.364Z,6.27
2023-03-21T06:06:18.538Z,6.32
2023-03-21T06:08:53.379Z,6.32
2023-03-21T06:11:27.483Z,6.36
2023-03-21T06:14:16.340Z,6.64
2023-03-21T06:16:45.451Z,6.74
2023-03-21T06:19:14.804Z,6.74
2023-03-21T06:22:01.369Z,6.78
2023-03-21T06:24:29.631Z,6.92
2023-03-21T06:26:58.605Z,7.18
2023-03-21T06:29:28.523Z,7.18
2023-03-21T06:31:56.653Z,7.17
2023-03-21T06:34:24.568Z,7.18
2023-03-21T06:36:54.684Z,7.36
2023-03-21T06:39:23.285Z,7.48
2023-03-21T06:41:51.758Z,7.47
2023-03-21T06:44:22.127Z,7.45
2023-03-21T06:46:57.478Z,7.50
2023-03-21T06:49:27.040Z,7.72
2023-03-21T06:51:58.492Z,7.72
2023-03-21T06:54:26.879Z,7.64
2023-03-21T06:57:11.533Z,7.61
2023-03-21T06:59:42.012Z,7.76
2023-03-21T07:02:12.634Z,7.98
2023-03-21T07:04:46.108Z,7.99
2023-03-21T07:07:18.464Z,7.96
2023-03-21T07:09:47.696Z,8.04
2023-03-21T07:12:16.526Z,8.22
2023-03-21T07:15:20.043Z,8.74
2023-03-21T07:17:48.336Z,9.01
2023-03-21T07:20:17.073Z,9.22
2023-03-21T07:22:45.075Z,9.42
2023-03-21T07:25:20.585Z,9.60
2023-03-21T07:27:51.226Z,9.81
2023-03-21T07:30:19.376Z,10.05
2023-03-21T07:32:47.743Z,10.25
2023-03-21T07:35:17.365Z,10.46
2023-03-21T07:37:47.158Z,10.64
2023-03-21T07:40:18.010Z,10.78
2023-03-21T07:42:45.979Z,10.92
2023-03-21T07:45:21.983Z,11.11
2023-03-21T07:47:50.384Z,11.26
2023-03-21T07:50:19.456Z,11.40
2023-03-21T07:55:56.895Z,11.35
2023-03-21T07:58:26.802Z,11.71
2023-03-21T08:00:55.265Z,11.81
2023-03-21T08:03:23.522Z,11.94
2023-03-21T08:05:55.125Z,12.10
2023-03-21T08:08:23.938Z,12.23
2023-03-21T08:10:50.500Z,12.31
2023-03-21T08:13:22.385Z,12.37
2023-03-21T08:15:49.263Z,12.39
2023-03-21T08:18:16.317Z,12.44
2023-03-21T08:20:43.074Z,12.54
2023-03-21T08:23:09.731Z,12.65
2023-03-21T08:25:36.922Z,12.77
2023-03-21T08:28:04.681Z,12.92
2023-03-21T08:30:32.574Z,13.05
2023-03-21T08:33:01.182Z,13.09
2023-03-21T08:35:29.623Z,13.14
2023-03-21T08:37:56.992Z,13.21
2023-03-21T08:40:23.612Z,13.25
2023-03-21T08:42:52.280Z,13.32
2023-03-21T08:45:19.102Z,13.38
2023-03-21T08:47:47.653Z,13.47
2023-03-21T08:50:17.422Z,13.59
2023-03-21T08:52:44.221Z,13.70
2023-03-21T08:55:10.984Z,13.77
2023-03-21T08:57:38.097Z,13.84
2023-03-21T09:00:12.480Z,13.92
2023-03-21T09:02:40.972Z,13.97
2023-03-21T09:05:08.197Z,13.97
2023-03-21T09:07:35.852Z,13.95
2023-03-21T09:10:21.778Z,13.88
2023-03-21T09:12:55.203Z,13.80
2023-03-21T09:15:25.050Z,13.77
2023-03-21T09:17:53.482Z,13.77
2023-03-21T09:20:25.477Z,13.80
2023-03-21T09:22:52.676Z,13.84
2023-03-21T09:25:20.557Z,13.90
2023-03-21T09:27:49.322Z,13.92
2023-03-21T09:30:17.841Z,13.96
2023-03-21T09:32:47.836Z,14.05
2023-03-21T09:35:18.486Z,14.15
2023-03-21T09:37:49.193Z,14.23
2023-03-21T09:40:25.493Z,14.29
2023-03-21T09:43:06.920Z,14.36
2023-03-21T09:45:44.301Z,14.42
2023-03-21T09:48:19.254Z,14.48
2023-03-21T09:50:48.766Z,14.55
2023-03-21T09:53:23.961Z,14.63
2023-03-21T09:55:53.454Z,14.70
2023-03-21T09:58:25.759Z,14.74
2023-03-21T10:01:00.685Z,14.77
2023-03-21T10:03:34.460Z,14.86
2023-03-21T10:06:04.739Z,14.91
2023-03-21T10:08:35.860Z,14.93
2023-03-21T10:11:22.588Z,14.96
2023-03-21T10:13:55.790Z,15.05
2023-03-21T10:16:31.333Z,15.13
2023-03-21T10:19:04.775Z,15.20
2023-03-21T10:21:58.578Z,15.19
2023-03-21T10:24:21.906Z,15.13
2023-03-21T10:26:51.028Z,15.16
2023-03-21T10:29:18.009Z,15.31
2023-03-21T10:31:45.046Z,15.45
2023-03-21T10:34:16.200Z,15.50
2023-03-21T10:36:43.978Z,15.54
2023-03-21T10:39:21.173Z,15.55
2023-03-21T10:41:47.759Z,15.49
2023-03-21T10:44:16.731Z,15.41
2023-03-21T10:46:53.457Z,15.39
2023-03-21T10:49:20.988Z,15.32
2023-03-21T10:51:52.140Z,15.27
2023-03-21T10:54:20.860Z,15.31
2023-03-21T10:56:57.560Z,15.30
2023-03-21T10:59:24.747Z,15.30
2023-03-21T11:01:52.284Z,15.42
2023-03-21T11:04:21.865Z,15.58
2023-03-21T11:06:59.365Z,15.76
2023-03-21T11:09:41.932Z,15.99
2023-03-21T11:12:27.313Z,16.19
2023-03-21T11:14:54.634Z,16.39
2023-03-21T11:17:28.474Z,16.44
2023-03-21T11:20:08.464Z,16.53
2023-03-21T11:22:40.333Z,16.60
2023-03-21T11:25:11.467Z,16.49
2023-03-21T11:27:47.373Z,16.34
2023-03-21T11:30:21.051Z,16.22
2023-03-21T11:32:51.590Z,16.20
2023-03-21T11:35:20.746Z,16.23
2023-03-21T11:37:52.685Z,16.38
2023-03-21T11:40:25.630Z,16.42
2023-03-21T11:42:54.461Z,16.43
2023-03-21T11:45:25.219Z,16.43
2023-03-21T11:47:57.101Z,16.58
2023-03-21T11:50:23.780Z,16.91
2023-03-21T11:53:06.799Z,17.25
2023-03-21T11:56:06.396Z,17.55
2023-03-21T11:58:38.990Z,17.57
2023-03-21T12:01:43.173Z,17.71
2023-03-21T12:04:17.833Z,17.95
2023-03-21T12:06:47.221Z,18.11
2023-03-21T12:09:32.808Z,18.08
2023-03-21T12:12:06.944Z,18.10
2023-03-21T12:14:56.194Z,18.08
2023-03-21T12:17:35.454Z,18.08
2023-03-21T12:20:11.485Z,18.02
2023-03-21T12:22:59.089Z,17.85
2023-03-21T12:25:30.816Z,17.66
2023-03-21T12:28:32.008Z,17.35
2023-03-21T12:31:25.001Z,17.13
2023-03-21T12:34:14.226Z,17.06
2023-03-21T12:37:02.919Z,17.06
2023-03-21T12:39:36.802Z,17.12
2023-03-21T12:42:03.525Z,17.10
2023-03-21T12:44:32.222Z,17.04
2023-03-21T12:47:22.632Z,17.00
2023-03-21T12:49:55.190Z,17.05
2023-03-21T12:52:25.380Z,17.01
2023-03-21T12:55:00.046Z,16.94
2023-03-21T12:57:47.703Z,16.98
2023-03-21T13:00:25.147Z,16.86
2023-03-21T13:03:12.312Z,16.67
2023-03-21T13:06:00.469Z,16.50
2023-03-21T13:08:39.021Z,16.36
2023-03-21T13:11:06.195Z,16.29
2023-03-21T13:13:46.761Z,16.22
2023-03-21T13:16:39.021Z,16.18
2023-03-21T13:19:20.330Z,16.12
2023-03-21T13:22:05.893Z,16.12
2023-03-21T13:24:48.326Z,16.19
2023-03-21T13:27:24.100Z,16.26
2023-03-21T13:29:52.480Z,16.34
2023-03-21T13:32:30.162Z,16.41
2023-03-21T13:35:16.340Z,16.48
2023-03-21T13:37:52.663Z,16.58
2023-03-21T13:40:39.501Z,16.59
2023-03-21T13:43:48.748Z,16.68
2023-03-21T13:46:24.780Z,16.80
2023-03-21T13:48:58.504Z,16.86
2023-03-21T13:51:29.139Z,16.94
2023-03-21T13:54:38.215Z,16.98
2023-03-21T13:57:05.546Z,17.09
2023-03-21T13:59:32.157Z,17.16
2023-03-21T14:02:28.381Z,17.27
2023-03-21T14:05:07.225Z,17.41
2023-03-21T14:07:42.423Z,17.45
2023-03-21T14:10:23.736Z,17.36
2023-03-21T14:12:51.410Z,17.17
2023-03-21T14:15:19.584Z,17.02
2023-03-21T14:17:58.202Z,16.81
2023-03-21T14:20:32.272Z,16.54
2023-03-21T14:23:00.252Z,16.43
2023-03-21T14:25:37.131Z,16.28
2023-03-21T14:28:25.273Z,16.08
2023-03-21T14:30:59.881Z,15.90
2023-03-21T14:33:43.257Z,15.78
2023-03-21T14:36:17.065Z,15.71
2023-03-21T14:38:43.752Z,15.58
2023-03-21T14:41:26.667Z,15.52
2023-03-21T14:44:25.188Z,15.48
2023-03-21T14:47:05.564Z,15.43
2023-03-21T14:49:33.654Z,15.33
2023-03-21T14:52:02.065Z,15.26
2023-03-21T14:54:29.409Z,15.19
2023-03-21T14:57:02.863Z,15.14
2023-03-21T14:59:34.124Z,15.05
2023-03-21T15:02:04.456Z,14.93
2023-03-21T15:04:31.302Z,14.82
2023-03-21T15:07:04.343Z,14.66
2023-03-21T15:09:33.939Z,14.45
2023-03-21T15:12:08.483Z,14.25
2023-03-21T15:14:36.140Z,14.12
2023-03-21T15:17:07.072Z,13.98
2023-03-21T15:19:39.562Z,13.79
2023-03-21T15:22:18.216Z,13.60
2023-03-21T15:24:48.208Z,13.50
2023-03-21T15:27:17.010Z,13.52
2023-03-21T15:29:44.258Z,13.43
2023-03-21T15:32:16.784Z,13.20
2023-03-21T15:34:44.768Z,13.10
2023-03-21T15:37:33.423Z,13.09
2023-03-21T15:40:23.410Z,12.84
2023-03-21T15:42:50.797Z,12.62
2023-03-21T15:45:26.503Z,12.62
2023-03-21T15:48:07.316Z,12.51
2023-03-21T15:50:56.468Z,12.30
2023-03-21T15:53:23.573Z,12.26
2023-03-21T15:56:03.854Z,12.20
2023-03-21T15:58:42.297Z,12.06
2023-03-21T16:01:19.370Z,11.90
2023-03-21T16:04:02.431Z,11.66
2023-03-21T16:06:33.017Z,11.73
2023-03-21T16:09:09.730Z,11.69
2023-03-21T16:11:49.087Z,11.47
2023-03-21T16:14:17.054Z,11.46
2023-03-21T16:16:44.251Z,11.50
2023-03-21T16:19:12.360Z,11.44
2023-03-21T16:21:41.360Z,11.43
2023-03-21T16:24:11.093Z,11.59
2023-03-21T16:26:45.586Z,11.62
2023-03-21T16:29:13.426Z,11.55
2023-03-21T16:31:40.267Z,11.57
2023-03-21T16:34:07.443Z,11.76
2023-03-21T16:36:39.678Z,11.77
2023-03-21T16:39:16.330Z,11.77
2023-03-21T16:41:42.989Z,11.83
2023-03-21T16:44:09.712Z,11.80
2023-03-21T16:46:36.486Z,11.76
2023-03-21T16:49:03.508Z,11.83
2023-03-21T16:51:34.845Z,12.12
2023-03-21T16:54:01.914Z,12.15
2023-03-21T16:56:39.960Z,12.11
2023-03-21T16:59:07.750Z,12.21
2023-03-21T17:01:37.684Z,12.28
2023-03-21T17:04:04.400Z,12.18
2023-03-21T17:06:32.683Z,12.11
2023-03-21T17:08:59.939Z,12.06
2023-03-21T17:11:30.893Z,12.03
2023-03-21T17:13:57.530Z,12.17
2023-03-21T17:16:26.672Z,12.25
2023-03-21T17:18:54.504Z,12.18
2023-03-21T17:21:22.781Z,12.13
2023-03-21T17:23:49.679Z,12.21
2023-03-21T17:26:22.182Z,12.30
2023-03-21T17:28:48.955Z,12.20
2023-03-21T17:31:17.384Z,12.12
2023-03-21T17:33:44.257Z,12.28
2023-03-21T17:36:13.183Z,12.30
2023-03-21T17:38:40.022Z,12.15
2023-03-21T17:41:10.967Z,12.12
2023-03-21T17:43:37.559Z,12.25
2023-03-21T17:46:04.709Z,12.17
2023-03-21T17:48:31.571Z,12.05
2023-03-21T17:50:58.111Z,12.15
2023-03-21T17:53:26.051Z,12.13
2023-03-21T17:55:55.167Z,11.95
2023-03-21T17:58:22.706Z,11.96
2023-03-21T18:00:49.203Z,11.97
2023-03-21T18:03:17.826Z,11.83
2023-03-21T18:05:45.711Z,11.78
2023-03-21T18:08:13.545Z,11.89
2023-03-21T18:10:40.942Z,11.80
2023-03-21T18:13:07.861Z,11.71
2023-03-21T18:15:44.093Z,11.85
2023-03-21T18:18:13.435Z,11.87
2023-03-21T18:20:51.816Z,11.76
2023-03-21T18:23:19.191Z,11.85
2023-03-21T18:25:45.830Z,11.93
2023-03-21T18:28:21.100Z,11.83
2023-03-21T18:31:11.451Z,11.83
2023-03-21T18:33:37.355Z,11.87
2023-03-21T18:36:07.627Z,11.74
2023-03-21T18:38:36.471Z,11.66
2023-03-21T18:41:07.174Z,11.77
2023-03-21T18:46:23.074Z,11.67
2023-03-21T18:48:51.628Z,11.78
2023-03-21T18:51:18.966Z,11.79
2023-03-21T18:53:45.896Z,11.71
2023-03-21T18:56:46.868Z,11.58
2023-03-21T18:59:04.472Z,11.73
2023-03-21T19:01:32.055Z,11.75
2023-03-21T19:04:20.698Z,11.61
2023-03-21T19:06:46.237Z,11.55
2023-03-21T19:09:14.345Z,11.63
2023-03-21T19:11:42.016Z,11.56
2023-03-21T19:14:12.828Z,11.45
2023-03-21T19:17:14.838Z,11.55
2023-03-21T19:19:27.799Z,11.60
2023-03-21T19:21:55.001Z,11.61
2023-03-21T19:24:27.534Z,11.56
2023-03-21T19:26:59.163Z,11.43
2023-03-21T19:29:26.162Z,11.49
2023-03-21T19:31:52.757Z,11.47
2023-03-21T19:34:20.626Z,11.38
2023-03-21T19:36:51.654Z,11.24
2023-03-21T19:39:21.610Z,11.35
2023-03-21T19:41:48.560Z,11.41
2023-03-21T19:44:15.553Z,11.40
2023-03-21T19:46:42.459Z,11.34
2023-03-21T19:49:10.405Z,11.23
2023-03-21T19:51:37.691Z,11.28
2023-03-21T19:54:04.903Z,11.27
2023-03-21T19:56:31.997Z,11.16
2023-03-21T19:58:59.246Z,11.05
2023-03-21T20:01:27.240Z,11.16
2023-03-21T20:03:55.726Z,11.23
2023-03-21T20:06:23.378Z,11.13
2023-03-21T20:09:30.830Z,11.05
2023-03-21T20:23:25.695Z,12.07
2023-03-21T20:25:53.730Z,12.14
2023-03-21T20:28:27.066Z,12.07
2023-03-21T20:31:02.068Z,11.79
2023-03-21T20:33:30.723Z,11.56
2023-03-21T20:38:52.222Z,11.46
2023-03-21T20:41:20.901Z,11.27
2023-03-21T20:46:38.086Z,11.35
2023-03-21T20:49:09.905Z,11.23
2023-03-21T20:52:40.846Z,11.27
2023-03-21T20:54:26.776Z,11.34
2023-03-21T20:56:56.822Z,11.20
2023-03-21T20:59:27.660Z,11.11
2023-03-21T21:01:59.058Z,11.20
2023-03-21T21:04:52.854Z,11.16
2023-03-21T21:07:21.229Z,11.05
2023-03-21T21:09:54.643Z,11.15
2023-03-21T21:12:27.533Z,11.21
2023-03-21T21:14:56.706Z,11.09
2023-03-21T21:17:54.542Z,10.98
2023-03-21T21:20:20.883Z,11.10
2023-03-21T21:22:59.597Z,11.02
2023-03-21T21:25:32.063Z,10.88
2023-03-21T21:28:01.838Z,10.97
2023-03-21T21:30:38.372Z,11.04
2023-03-21T21:33:07.091Z,10.90
2023-03-21T21:35:35.980Z,10.95
2023-03-21T21:38:04.548Z,10.98
2023-03-21T21:40:33.014Z,10.83
2023-03-21T21:43:03.748Z,10.87
2023-03-21T21:45:32.488Z,10.91
2023-03-21T21:48:00.823Z,10.78
2023-03-21T21:50:30.656Z,10.82
2023-03-21T21:53:03.914Z,10.85
2023-03-21T21:55:34.287Z,10.74
2023-03-21T21:58:03.975Z,10.74
2023-03-21T22:00:32.288Z,10.80
2023-03-21T22:03:00.720Z,10.73
2023-03-21T22:05:29.345Z,10.60
2023-03-21T22:08:03.534Z,10.70
2023-03-21T22:10:33.000Z,10.76
2023-03-21T22:13:00.907Z,10.62
2023-03-21T22:15:29.188Z,10.62
2023-03-21T22:17:58.978Z,10.70
2023-03-21T22:20:26.892Z,10.67
2023-03-21T22:23:01.058Z,10.56
2023-03-21T22:25:33.123Z,10.38
2023-03-21T22:28:01.135Z,10.40
2023-03-21T22:30:29.410Z,10.32
2023-03-21T22:33:08.922Z,10.14
2023-03-21T22:35:42.544Z,10.20
2023-03-21T22:38:12.919Z,10.25
2023-03-21T22:40:41.326Z,10.26
2023-03-21T22:43:13.590Z,10.24
2023-03-21T22:45:41.702Z,10.11
2023-03-21T22:48:13.573Z,10.13
2023-03-21T22:50:42.313Z,10.15
2023-03-21T22:53:10.529Z,10.05
2023-03-21T22:55:38.934Z,10.02
2023-03-21T22:58:07.515Z,10.08
2023-03-21T23:00:35.502Z,10.08
2023-03-21T23:03:04.771Z,10.04
2023-03-21T23:05:33.851Z,9.89
2023-03-21T23:08:07.994Z,9.92
2023-03-21T23:10:40.921Z,10.01
2023-03-21T23:13:09.332Z,9.99
2023-03-21T23:15:40.832Z,9.88
2023-03-21T23:18:09.872Z,9.82
2023-03-21T23:20:38.300Z,9.91
2023-03-21T23:23:06.467Z,9.97
2023-03-21T23:25:39.542Z,9.98
2023-03-21T23:28:08.931Z,9.99
2023-03-21T23:30:38.282Z,9.98
2023-03-21T23:33:06.623Z,9.97
2023-03-21T23:35:39.510Z,9.97
2023-03-21T23:38:08.057Z,9.96
2023-03-21T23:40:38.987Z,9.93
2023-03-21T23:43:07.250Z,9.84
2023-03-21T23:45:35.408Z,9.90
2023-03-21T23:48:05.142Z,9.95
2023-03-21T23:50:34.130Z,9.85
2023-03-21T23:53:05.621Z,9.82
2023-03-21T23:55:37.964Z,9.91
2023-03-21T23:58:09.294Z,9.86
